createdAt,value
2018-02-11T20:43:52.193Z,20.25
2018-02-11T20:46:19.826Z,18.43
2018-02-11T20:48:47.362Z,17.05
2018-02-11T20:51:14.967Z,16.97
2018-02-11T20:53:42.546Z,16.20
2018-02-11T20:56:10.165Z,16.20
2018-02-11T20:58:37.693Z,17.47
2018-02-11T21:01:05.234Z,17.00
2018-02-11T21:03:32.765Z,15.33
2018-02-11T21:06:00.390Z,16.00
2018-02-11T21:08:27.918Z,15.93
2018-02-11T21:10:56.198Z,16.30
2018-02-11T21:13:24.587Z,14.53
2018-02-11T21:15:52.091Z,14.97
2018-02-11T21:18:19.589Z,14.53
2018-02-11T21:20:47.127Z,14.10
2018-02-11T21:23:14.690Z,13.80
2018-02-11T21:25:42.295Z,14.53
2018-02-11T21:28:09.815Z,15.80
2018-02-11T21:30:38.133Z,14.35
2018-02-11T21:33:05.671Z,14.80
2018-02-11T21:35:33.167Z,14.82
2018-02-11T21:38:00.689Z,15.02
2018-02-11T21:40:28.215Z,14.50
2018-02-11T21:42:55.766Z,14.17
2018-02-11T21:45:23.249Z,14.30
2018-02-11T21:47:55.961Z,14.40
2018-02-11T21:50:23.498Z,15.85
2018-02-11T21:52:51.007Z,15.07
2018-02-11T21:55:18.959Z,15.03
2018-02-11T21:57:46.470Z,14.43
2018-02-11T22:00:19.336Z,15.37
2018-02-11T22:02:46.852Z,15.40
2018-02-11T22:05:14.400Z,14.80
2018-02-11T22:07:42.091Z,13.70
2018-02-11T22:10:09.824Z,14.27
2018-02-11T22:12:38.235Z,14.07
2018-02-11T22:15:05.729Z,13.70
2018-02-11T22:17:33.355Z,14.32
2018-02-11T22:20:00.877Z,13.23
2018-02-11T22:22:28.419Z,12.85
2018-02-11T22:24:55.941Z,13.65
2018-02-11T22:27:23.431Z,12.97
2018-02-11T22:29:50.953Z,12.77
2018-02-11T22:32:18.775Z,12.83
2018-02-11T22:34:47.054Z,13.13
2018-02-11T22:37:15.323Z,12.37
2018-02-11T22:39:43.597Z,12.20
2018-02-11T22:42:11.877Z,11.50
2018-02-11T22:44:40.150Z,11.73
2018-02-11T22:47:07.702Z,11.23
2018-02-11T22:49:35.293Z,10.80
2018-02-11T22:52:02.813Z,10.73
2018-02-11T22:54:30.303Z,10.27
2018-02-11T22:56:57.822Z,10.60
2018-02-11T22:59:25.413Z,9.13
2018-02-11T23:01:53.691Z,9.15
2018-02-11T23:04:21.974Z,9.10
2018-02-11T23:06:49.457Z,9.30
2018-02-11T23:09:16.967Z,9.10
2018-02-11T23:11:44.630Z,8.80
2018-02-11T23:14:12.902Z,8.70
2018-02-11T23:16:40.382Z,8.40
2018-02-11T23:19:07.870Z,8.17
2018-02-11T23:21:35.378Z,8.35
2018-02-11T23:24:02.865Z,8.80
2018-02-11T23:26:30.449Z,8.05
2018-02-11T23:28:57.998Z,8.60
2018-02-11T23:31:25.530Z,8.23
2018-02-11T23:33:53.794Z,8.03
2018-02-11T23:36:21.358Z,8.05
2018-02-11T23:38:48.896Z,8.35
2018-02-11T23:41:16.479Z,8.03
2018-02-11T23:43:44.147Z,7.60
2018-02-11T23:46:12.098Z,7.47
2018-02-11T23:48:39.675Z,7.30
2018-02-11T23:51:07.334Z,7.25
2018-02-11T23:53:34.832Z,7.03
2018-02-11T23:56:02.343Z,8.10
2018-02-11T23:58:30.597Z,7.10
